Skip Navigation LinksHome page > Tools > METAR decoder Skip Navigation Links

METAR decoder

Settings

METAR

Chicago O'Hare Intl, Chicago

For information only: do not use for flight planning or navigation.
Latest weather
Observation time Thursday, August 27, 2015 11:51 AM CDT
Local time Thursday, August 27, 2015 2:19 PM CDT
Flight conditions Visual Meteorological Conditions
Winds
Wind direction Southeast (130°)
Wind speed 7 mph
Visibility 10 mi.
Sky condition
Ceiling 3,600 ft. broken clouds
Cloud layer broken clouds 3,600 ft.
Temperature 70°F
Dewpoint 52°F
Altimeter 30.19 in.Hg
Derived measurements
Relative humidity 53%
Density altitude 1262 ft.
Sea-level pressure 30.18 in.Hg
Remarks
Automated weather observing station with precipitation discriminator.
METAR KORD 271651Z 13006KT 10SM BKN036 21/11 A3019 RMK AO2 SLP221 T02110111

InnerDrive.Weather 4.0.5567.0 Release CLR 4.0.30319.34014
Copyright ©2015 Inner Drive Technology. All rights reserved. Portions Copyright ©1986-2015 David Braverman.

Find weather

Site navigation


Skip Navigation Links

Place info

Page info

PayPal - The safer, easier way to pay online!

Return home.

Copyright ©2015 Inner Drive Technology. Purveyors of fine, hand-crafted computer software. Page printed 2015-08-27T19:19:38 UTC.